createdAt,value
2022-08-17T00:00:42.779Z,97610.03
2022-08-17T00:03:50.205Z,97615.16
2022-08-17T00:06:54.038Z,97611.28
2022-08-17T00:09:59.465Z,97603.38
2022-08-17T00:13:07.473Z,97603.50
2022-08-17T00:16:15.098Z,97605.09
2022-08-17T00:19:22.980Z,97607.66
2022-08-17T00:22:34.061Z,97601.41
2022-08-17T00:25:42.041Z,97596.41
2022-08-17T00:28:46.274Z,97599.38
2022-08-17T00:33:12.041Z,97589.47
2022-08-17T00:35:27.901Z,97595.25
2022-08-17T00:38:32.088Z,97595.31
2022-08-17T00:41:42.230Z,97603.91
2022-08-17T00:44:47.226Z,97614.31
2022-08-17T00:47:51.316Z,97608.97
2022-08-17T00:51:00.272Z,97606.78
2022-08-17T00:54:08.982Z,97605.16
2022-08-17T00:57:18.735Z,97607.16
2022-08-17T01:00:27.115Z,97601.19
2022-08-17T01:03:31.704Z,97602.97
2022-08-17T01:06:36.201Z,97609.94
2022-08-17T01:09:41.075Z,97606.53
2022-08-17T01:12:49.889Z,97605.78
2022-08-17T01:15:58.552Z,97620.91
2022-08-17T01:19:05.574Z,97607.84
2022-08-17T01:22:18.823Z,97613.78
2022-08-17T01:25:23.444Z,97605.19
2022-08-17T01:28:40.721Z,97610.56
2022-08-17T01:31:58.129Z,97613.38
2022-08-17T01:35:01.902Z,97613.47
2022-08-17T01:38:09.617Z,97606.34
2022-08-17T01:41:17.073Z,97604.59
2022-08-17T01:44:23.192Z,97605.78
2022-08-17T01:47:27.630Z,97604.72
2022-08-17T01:50:38.029Z,97593.22
2022-08-17T01:53:47.369Z,97607.78
2022-08-17T01:56:52.956Z,97594.53
2022-08-17T01:59:56.765Z,97588.63
2022-08-17T02:03:00.750Z,97596.41
2022-08-17T02:06:05.990Z,97604.59
2022-08-17T02:09:31.517Z,97596.53
2022-08-17T02:12:39.862Z,97590.88
2022-08-17T02:15:44.223Z,97599.53
2022-08-17T02:18:48.206Z,97596.50
2022-08-17T02:21:54.433Z,97597.25
2022-08-17T02:25:02.395Z,97592.72
2022-08-17T02:28:07.194Z,97587.41
2022-08-17T02:31:12.508Z,97589.94
2022-08-17T02:34:16.645Z,97587.66
2022-08-17T02:37:20.303Z,97593.06
2022-08-17T02:40:36.381Z,97587.50
2022-08-17T02:43:40.549Z,97591.59
2022-08-17T02:46:44.453Z,97588.22
2022-08-17T02:49:54.143Z,97592.16
2022-08-17T02:53:02.268Z,97598.69
2022-08-17T02:56:08.431Z,97587.63
2022-08-17T02:59:12.384Z,97596.25
2022-08-17T03:02:16.045Z,97599.69
2022-08-17T03:05:24.674Z,97595.72
2022-08-17T03:08:29.049Z,97609.91
2022-08-17T03:11:34.381Z,97607.13
2022-08-17T03:14:41.460Z,97606.28
2022-08-17T03:17:46.370Z,97613.34
2022-08-17T03:20:50.502Z,97602.91
2022-08-17T03:23:54.713Z,97616.50
2022-08-17T03:26:59.792Z,97622.16
2022-08-17T03:30:04.187Z,97627.69
2022-08-17T03:33:10.207Z,97637.06
2022-08-17T03:36:14.352Z,97640.81
2022-08-17T03:39:17.976Z,97637.13
2022-08-17T03:42:31.283Z,97637.97
2022-08-17T03:45:54.412Z,97642.47
2022-08-17T03:49:16.257Z,97648.03
2022-08-17T03:52:37.217Z,97650.69
2022-08-17T03:55:58.886Z,97639.19
2022-08-17T03:59:03.901Z,97647.28
2022-08-17T04:02:12.593Z,97657.84
2022-08-17T04:05:16.366Z,97654.97
2022-08-17T04:08:21.118Z,97653.09
2022-08-17T04:11:24.704Z,97665.66
2022-08-17T04:14:33.793Z,97660.31
2022-08-17T04:17:37.367Z,97660.66
2022-08-17T04:20:41.521Z,97663.91
2022-08-17T04:23:45.414Z,97656.63
2022-08-17T04:26:52.645Z,97664.13
2022-08-17T04:29:59.962Z,97663.22
2022-08-17T04:33:08.804Z,97658.69
2022-08-17T04:36:15.555Z,97662.81
2022-08-17T04:39:19.487Z,97662.28
2022-08-17T04:42:22.055Z,97664.09
2022-08-17T04:45:27.427Z,97663.13
2022-08-17T04:48:38.097Z,97666.19
2022-08-17T04:51:51.030Z,97667.28
2022-08-17T04:54:59.947Z,97666.63
2022-08-17T04:58:03.996Z,97672.31
2022-08-17T05:01:09.349Z,97672.84
2022-08-17T05:04:33.506Z,97675.34
2022-08-17T05:07:39.039Z,97677.28
2022-08-17T05:10:45.534Z,97678.06
2022-08-17T05:13:50.364Z,97683.16
2022-08-17T05:16:55.900Z,97683.31
2022-08-17T05:19:59.537Z,97677.09
2022-08-17T05:23:07.198Z,97683.47
2022-08-17T05:26:20.446Z,97683.66
2022-08-17T05:29:35.185Z,97682.00
2022-08-17T05:32:40.860Z,97692.19
2022-08-17T05:35:47.243Z,97696.66
2022-08-17T05:38:50.995Z,97690.59
2022-08-17T05:41:54.861Z,97698.28
2022-08-17T05:44:59.278Z,97691.59
2022-08-17T05:48:13.556Z,97686.63
2022-08-17T05:51:59.330Z,97693.50
2022-08-17T05:55:15.365Z,97696.38
2022-08-17T05:58:35.473Z,97696.59
2022-08-17T06:01:49.734Z,97691.84
2022-08-17T06:05:30.666Z,97690.38
2022-08-17T06:08:45.446Z,97683.69
2022-08-17T06:11:58.773Z,97692.19
2022-08-17T06:15:19.484Z,97695.81
2022-08-17T06:18:26.925Z,97700.63
2022-08-17T06:21:37.138Z,97700.41
2022-08-17T06:24:45.659Z,97693.63
2022-08-17T06:27:53.795Z,97683.16
2022-08-17T06:31:02.364Z,97688.59
2022-08-17T06:34:12.103Z,97683.25
2022-08-17T06:37:39.843Z,97682.13
2022-08-17T06:41:00.404Z,97684.75
2022-08-17T06:44:42.128Z,97686.56
2022-08-17T06:48:14.914Z,97689.41
2022-08-17T06:51:26.830Z,97695.91
2022-08-17T06:54:40.611Z,97693.56
2022-08-17T06:57:48.830Z,97697.47
2022-08-17T07:00:59.224Z,97703.66
2022-08-17T07:04:11.784Z,97698.75
2022-08-17T07:07:35.685Z,97689.34
2022-08-17T07:10:46.104Z,97697.81
2022-08-17T07:13:58.634Z,97698.31
2022-08-17T07:17:05.787Z,97698.94
2022-08-17T07:20:45.881Z,97703.31
2022-08-17T07:24:03.580Z,97705.06
2022-08-17T07:27:13.285Z,97690.66
2022-08-17T07:30:22.112Z,97695.63
2022-08-17T07:33:28.341Z,97693.66
2022-08-17T07:36:33.956Z,97697.53
2022-08-17T07:39:37.540Z,97693.66
2022-08-17T07:43:21.810Z,97694.09
2022-08-17T07:46:47.995Z,97701.72
2022-08-17T07:49:52.385Z,97687.03
2022-08-17T07:52:56.091Z,97694.41
2022-08-17T07:56:00.913Z,97700.66
2022-08-17T07:59:15.884Z,97698.66
2022-08-17T08:02:33.679Z,97687.91
2022-08-17T08:05:51.046Z,97691.56
2022-08-17T08:08:57.318Z,97689.25
2022-08-17T08:12:02.044Z,97685.97
2022-08-17T08:15:18.970Z,97682.03
2022-08-17T08:18:39.651Z,97683.56
2022-08-17T08:22:00.138Z,97684.84
2022-08-17T08:25:21.281Z,97679.56
2022-08-17T08:32:03.880Z,97679.88
2022-08-17T08:35:13.126Z,97679.34
2022-08-17T08:39:16.630Z,97680.56
2022-08-17T08:42:27.119Z,97677.56
2022-08-17T08:45:39.631Z,97676.41
2022-08-17T08:49:12.092Z,97671.81
2022-08-17T08:56:06.276Z,97674.69
2022-08-17T08:59:22.055Z,97660.19
2022-08-17T09:02:41.738Z,97662.66
2022-08-17T09:06:32.135Z,97671.81
2022-08-17T09:09:42.352Z,97667.91
2022-08-17T09:12:55.082Z,97663.75
2022-08-17T09:16:04.105Z,97669.41
2022-08-17T09:19:15.060Z,97673.44
2022-08-17T09:22:36.943Z,97671.59
2022-08-17T09:25:50.496Z,97671.59
2022-08-17T09:29:01.730Z,97671.22
2022-08-17T09:32:18.434Z,97667.88
2022-08-17T09:35:36.701Z,97670.69
2022-08-17T09:38:54.070Z,97672.75
2022-08-17T09:42:07.511Z,97676.72
2022-08-17T09:45:24.484Z,97671.44
2022-08-17T09:48:34.612Z,97674.63
2022-08-17T09:51:42.703Z,97677.03
2022-08-17T09:54:50.909Z,97668.78
2022-08-17T09:58:06.301Z,97672.84
2022-08-17T10:01:23.512Z,97674.09
2022-08-17T10:04:40.942Z,97668.97
2022-08-17T10:07:56.043Z,97661.19
2022-08-17T10:11:16.232Z,97675.41
2022-08-17T10:14:36.703Z,97673.47
2022-08-17T10:18:04.022Z,97668.19
2022-08-17T10:21:28.169Z,97671.84
2022-08-17T10:25:02.145Z,97668.97
2022-08-17T10:28:28.727Z,97660.41
2022-08-17T10:31:39.771Z,97659.69
2022-08-17T10:35:11.798Z,97655.81
2022-08-17T10:38:34.255Z,97672.47
2022-08-17T10:41:46.778Z,97655.94
2022-08-17T10:44:57.047Z,97656.59
2022-08-17T10:48:06.180Z,97669.38
2022-08-17T10:51:12.829Z,97663.63
2022-08-17T10:54:41.777Z,97656.19
2022-08-17T10:57:48.070Z,97658.59
2022-08-17T11:01:00.507Z,97651.00
2022-08-17T11:04:28.738Z,97643.72
2022-08-17T11:07:50.418Z,97658.53
2022-08-17T11:11:15.775Z,97649.91
2022-08-17T11:14:39.918Z,97639.09
2022-08-17T11:18:22.476Z,97643.50
2022-08-17T11:21:48.061Z,97648.81
2022-08-17T11:24:54.737Z,97661.91
2022-08-17T11:28:08.853Z,97656.00
2022-08-17T11:31:39.102Z,97655.72
2022-08-17T11:34:45.052Z,97645.88
2022-08-17T11:38:02.944Z,97640.28
2022-08-17T11:41:21.559Z,97643.16
2022-08-17T11:44:40.506Z,97636.56
2022-08-17T11:48:27.311Z,97639.03
2022-08-17T11:52:09.307Z,97628.38
2022-08-17T11:55:56.156Z,97626.97
2022-08-17T11:59:02.308Z,97611.47
2022-08-17T12:02:32.735Z,97612.75
2022-08-17T12:05:37.323Z,97615.69
2022-08-17T12:08:43.510Z,97615.38
2022-08-17T12:12:12.781Z,97615.38
2022-08-17T12:15:28.612Z,97611.22
2022-08-17T12:18:38.369Z,97609.72
2022-08-17T12:21:50.617Z,97612.69
2022-08-17T12:25:03.316Z,97619.34
2022-08-17T12:28:22.417Z,97621.25
2022-08-17T12:31:30.757Z,97604.88
2022-08-17T12:34:39.953Z,97601.56
2022-08-17T12:37:51.449Z,97605.25
2022-08-17T12:41:27.435Z,97599.53
2022-08-17T12:44:50.082Z,97596.75
2022-08-17T12:48:11.802Z,97593.09
2022-08-17T12:51:15.528Z,97595.41
2022-08-17T12:54:27.684Z,97596.31
2022-08-17T12:57:41.270Z,97585.16
2022-08-17T13:00:51.005Z,97583.44
2022-08-17T13:03:59.831Z,97581.47
2022-08-17T13:07:03.797Z,97582.47
2022-08-17T13:10:07.931Z,97584.41
2022-08-17T13:13:21.400Z,97579.19
2022-08-17T13:16:26.704Z,97587.25
2022-08-17T13:19:40.457Z,97585.78
2022-08-17T13:22:45.193Z,97581.56
2022-08-17T13:25:55.589Z,97579.03
2022-08-17T13:29:02.585Z,97567.19
2022-08-17T13:32:20.170Z,97572.31
2022-08-17T13:35:50.290Z,97572.88
2022-08-17T13:39:11.695Z,97575.63
2022-08-17T13:42:34.222Z,97567.81
2022-08-17T13:46:10.944Z,97570.41
2022-08-17T13:49:15.029Z,97569.94
2022-08-17T13:55:55.351Z,97556.59
2022-08-17T13:59:02.826Z,97559.84
2022-08-17T14:02:07.673Z,97566.09
2022-08-17T14:05:11.826Z,97553.13
2022-08-17T14:08:19.280Z,97556.47
2022-08-17T14:11:25.089Z,97564.72
2022-08-17T14:14:29.330Z,97565.19
2022-08-17T14:17:38.115Z,97562.66
2022-08-17T14:20:46.275Z,97556.16
2022-08-17T14:23:54.506Z,97554.88
2022-08-17T14:27:02.375Z,97552.25
2022-08-17T14:30:08.249Z,97549.78
2022-08-17T14:33:12.693Z,97553.09
2022-08-17T14:36:17.188Z,97545.97
2022-08-17T14:39:22.815Z,97540.81
2022-08-17T14:42:32.856Z,97537.38
2022-08-17T14:45:37.960Z,97534.78
2022-08-17T14:48:41.862Z,97544.50
2022-08-17T14:51:45.508Z,97529.22
2022-08-17T14:54:52.433Z,97541.22
2022-08-17T14:57:58.521Z,97533.97
2022-08-17T15:01:02.405Z,97534.63
2022-08-17T15:04:07.629Z,97535.81
2022-08-17T15:07:11.590Z,97531.91
2022-08-17T15:10:17.434Z,97534.28
2022-08-17T15:13:29.798Z,97530.53
2022-08-17T15:16:38.538Z,97534.44
2022-08-17T15:19:47.278Z,97536.97
2022-08-17T15:22:55.419Z,97545.34
2022-08-17T15:26:01.448Z,97541.97
2022-08-17T15:29:07.774Z,97538.09
2022-08-17T15:32:28.347Z,97544.78
2022-08-17T15:35:35.514Z,97552.81
2022-08-17T15:38:40.334Z,97549.50
2022-08-17T15:41:43.899Z,97541.34
2022-08-17T15:44:50.792Z,97547.53
2022-08-17T15:47:55.644Z,97561.50
2022-08-17T15:51:02.729Z,97558.34
2022-08-17T15:54:19.341Z,97560.00
2022-08-17T15:57:27.699Z,97565.31
2022-08-17T16:00:44.115Z,97554.06
2022-08-17T16:04:04.779Z,97551.75
2022-08-17T16:07:11.168Z,97557.09
2022-08-17T16:10:19.020Z,97555.69
2022-08-17T16:13:24.134Z,97551.66
2022-08-17T16:16:31.429Z,97553.00
2022-08-17T16:19:35.478Z,97549.41
2022-08-17T16:22:42.273Z,97561.09
2022-08-17T16:25:52.848Z,97562.97
2022-08-17T16:28:59.026Z,97560.78
2022-08-17T16:32:15.631Z,97562.03
2022-08-17T16:35:22.121Z,97556.28
2022-08-17T16:38:25.658Z,97559.91
2022-08-17T16:41:45.228Z,97561.88
2022-08-17T16:44:48.979Z,97564.63
2022-08-17T16:47:55.210Z,97568.72
2022-08-17T16:51:03.843Z,97559.53
2022-08-17T16:54:09.448Z,97568.91
2022-08-17T16:57:14.170Z,97565.63
2022-08-17T17:00:21.176Z,97565.16
2022-08-17T17:03:29.392Z,97563.19
2022-08-17T17:06:45.138Z,97569.41
2022-08-17T17:09:52.835Z,97574.13
2022-08-17T17:13:02.041Z,97570.22
2022-08-17T17:16:19.102Z,97571.31
2022-08-17T17:19:41.442Z,97576.34
2022-08-17T17:22:53.488Z,97579.03
2022-08-17T17:26:06.281Z,97577.81
2022-08-17T17:29:21.489Z,97575.41
2022-08-17T17:32:46.019Z,97573.44
2022-08-17T17:36:00.324Z,97582.59
2022-08-17T17:39:11.146Z,97583.28
2022-08-17T17:42:20.463Z,97581.72
2022-08-17T17:45:27.478Z,97581.50
2022-08-17T17:48:31.742Z,97594.16
2022-08-17T17:52:06.348Z,97587.66
2022-08-17T17:59:18.906Z,97607.75
2022-08-17T18:02:52.708Z,97607.50
2022-08-17T18:06:21.247Z,97614.75
2022-08-17T18:09:50.958Z,97621.75
2022-08-17T18:13:02.706Z,97628.66
2022-08-17T18:16:09.663Z,97628.47
2022-08-17T18:19:15.889Z,97634.53
2022-08-17T18:22:22.266Z,97641.41
2022-08-17T18:25:44.856Z,97637.41
2022-08-17T18:28:55.468Z,97640.25
2022-08-17T18:32:24.074Z,97646.38
2022-08-17T18:35:37.439Z,97639.16
2022-08-17T18:38:45.735Z,97647.94
2022-08-17T18:41:57.256Z,97653.59
2022-08-17T18:45:04.129Z,97655.16
2022-08-17T18:48:28.265Z,97664.22
2022-08-17T18:51:41.397Z,97660.56
2022-08-17T18:55:04.158Z,97668.75
2022-08-17T18:58:22.675Z,97674.47
2022-08-17T19:01:42.000Z,97671.75
2022-08-17T19:05:05.838Z,97679.38
2022-08-17T19:08:21.718Z,97681.78
2022-08-17T19:11:33.337Z,97686.72
2022-08-17T19:14:38.892Z,97681.78
2022-08-17T19:17:48.859Z,97687.47
2022-08-17T19:21:03.498Z,97695.22
2022-08-17T19:24:19.605Z,97696.19
2022-08-17T19:27:43.689Z,97696.03
2022-08-17T19:30:57.052Z,97690.13
2022-08-17T19:34:03.170Z,97696.59
2022-08-17T19:37:17.276Z,97696.41
2022-08-17T19:40:51.852Z,97690.31
2022-08-17T19:45:00.665Z,97695.06
2022-08-17T19:48:18.628Z,97696.59
2022-08-17T19:51:34.124Z,97690.13
2022-08-17T19:54:47.509Z,97683.22
2022-08-17T19:58:01.884Z,97693.91
2022-08-17T20:01:08.674Z,97695.28
2022-08-17T20:04:32.340Z,97690.25
2022-08-17T20:07:46.444Z,97698.31
2022-08-17T20:10:56.649Z,97693.09
2022-08-17T20:14:05.979Z,97702.59
2022-08-17T20:17:14.661Z,97702.09
2022-08-17T20:20:29.856Z,97707.44
2022-08-17T20:23:48.406Z,97708.16
2022-08-17T20:26:58.349Z,97708.56
2022-08-17T20:30:10.836Z,97702.41
2022-08-17T20:33:31.189Z,97704.38
2022-08-17T20:37:02.183Z,97711.25
2022-08-17T20:40:27.062Z,97704.88
2022-08-17T20:44:04.240Z,97713.34
2022-08-17T20:47:14.725Z,97710.34
2022-08-17T20:50:32.625Z,97711.69
2022-08-17T20:54:14.831Z,97716.75
2022-08-17T20:58:02.187Z,97721.38
2022-08-17T21:01:14.552Z,97711.50
2022-08-17T21:04:47.316Z,97709.78
2022-08-17T21:07:58.149Z,97713.56
2022-08-17T21:12:02.945Z,97715.41
2022-08-17T21:15:04.931Z,97709.03
2022-08-17T21:18:15.959Z,97701.69
2022-08-17T21:21:29.795Z,97703.41
2022-08-17T21:24:44.757Z,97709.72
2022-08-17T21:28:07.569Z,97706.94
2022-08-17T21:31:34.303Z,97704.09
2022-08-17T21:34:39.826Z,97700.97
2022-08-17T21:37:45.419Z,97709.78
2022-08-17T21:40:51.969Z,97703.97
2022-08-17T21:44:05.811Z,97701.34
2022-08-17T21:47:24.679Z,97693.56
2022-08-17T21:50:31.641Z,97702.72
2022-08-17T21:53:44.430Z,97701.81
2022-08-17T21:56:50.921Z,97702.28
2022-08-17T21:59:57.948Z,97705.63
2022-08-17T22:03:09.589Z,97701.41
2022-08-17T22:06:25.509Z,97686.03
2022-08-17T22:09:32.788Z,97689.81
2022-08-17T22:12:36.571Z,97690.41
2022-08-17T22:15:43.965Z,97684.97
2022-08-17T22:18:53.729Z,97689.31
2022-08-17T22:22:04.628Z,97694.13
2022-08-17T22:25:21.076Z,97704.97
2022-08-17T22:28:40.053Z,97707.44
2022-08-17T22:31:56.594Z,97707.59
2022-08-17T22:35:31.045Z,97709.63
2022-08-17T22:38:37.745Z,97711.72
2022-08-17T22:41:52.976Z,97727.84
2022-08-17T22:44:56.849Z,97712.38
2022-08-17T22:48:03.318Z,97705.72
2022-08-17T22:51:13.763Z,97704.06
2022-08-17T22:54:37.497Z,97712.63
2022-08-17T22:58:05.323Z,97720.06
2022-08-17T23:01:28.231Z,97718.94
2022-08-17T23:04:35.825Z,97715.78
2022-08-17T23:07:42.513Z,97719.63
2022-08-17T23:10:50.485Z,97717.44
2022-08-17T23:14:29.900Z,97720.50
2022-08-17T23:20:53.300Z,97732.03
2022-08-17T23:23:58.454Z,97738.03
2022-08-17T23:27:07.539Z,97724.84
2022-08-17T23:30:14.131Z,97728.09
2022-08-17T23:33:27.663Z,97729.09
2022-08-17T23:36:31.733Z,97732.25
2022-08-17T23:39:37.306Z,97733.25
2022-08-17T23:42:46.284Z,97727.78
2022-08-17T23:45:51.083Z,97733.00
2022-08-17T23:48:57.010Z,97730.72
2022-08-17T23:52:03.035Z,97731.28
2022-08-17T23:55:08.896Z,97739.13
2022-08-17T23:58:12.713Z,97730.59
